createdAt,value
2023-04-02T00:00:36.470Z,0.80
2023-04-02T00:03:10.482Z,0.90
2023-04-02T00:05:51.192Z,1.02
2023-04-02T00:08:41.340Z,0.82
2023-04-02T00:11:10.157Z,1.02
2023-04-02T00:13:47.228Z,0.98
2023-04-02T00:18:54.050Z,1.10
2023-04-02T00:21:36.929Z,1.00
2023-04-02T00:24:16.345Z,1.10
2023-04-02T00:26:47.028Z,1.00
2023-04-02T00:29:16.456Z,1.67
2023-04-02T00:31:50.812Z,2.78
2023-04-02T00:34:32.294Z,2.80
2023-04-02T00:37:00.370Z,2.30
2023-04-02T00:39:33.364Z,2.67
2023-04-02T00:42:07.173Z,3.60
2023-04-02T00:44:46.965Z,2.95
2023-04-02T00:47:27.303Z,3.10
2023-04-02T00:50:14.756Z,2.47
2023-04-02T00:52:47.197Z,3.25
2023-04-02T00:55:25.898Z,2.53
2023-04-02T00:57:56.016Z,2.13
2023-04-02T01:00:35.715Z,2.33
2023-04-02T01:03:19.705Z,2.20
2023-04-02T01:05:50.570Z,1.63
2023-04-02T01:08:24.827Z,1.50
2023-04-02T01:11:30.254Z,1.70
2023-04-02T01:14:38.461Z,1.50
2023-04-02T01:17:33.732Z,1.50
2023-04-02T01:20:39.233Z,1.63
2023-04-02T01:23:15.315Z,1.80
2023-04-02T01:26:00.293Z,1.88
2023-04-02T01:28:37.448Z,1.70
2023-04-02T01:31:05.697Z,1.98
2023-04-02T01:33:35.529Z,1.70
2023-04-02T01:36:52.439Z,2.00
2023-04-02T01:44:00.088Z,2.50
2023-04-02T01:46:36.133Z,2.30
2023-04-02T01:49:15.372Z,2.25
2023-04-02T01:51:45.705Z,2.30
2023-04-02T01:54:18.202Z,2.40
2023-04-02T01:56:47.571Z,3.15
2023-04-02T01:59:20.381Z,2.47
2023-04-02T02:02:05.813Z,2.70
2023-04-02T02:04:37.084Z,2.70
2023-04-02T02:07:14.638Z,2.70
2023-04-02T02:09:45.100Z,2.60
2023-04-02T02:12:14.490Z,2.40
2023-04-02T02:14:51.102Z,2.63
2023-04-02T02:17:34.867Z,2.90
2023-04-02T02:20:09.433Z,2.90
2023-04-02T02:22:44.679Z,2.78
2023-04-02T02:25:36.471Z,2.30
2023-04-02T02:28:28.975Z,2.67
2023-04-02T02:31:08.465Z,2.90
2023-04-02T02:38:32.641Z,3.70
2023-04-02T02:41:24.828Z,3.58
2023-04-02T02:44:07.251Z,4.68
2023-04-02T02:46:38.329Z,5.15
2023-04-02T02:49:15.717Z,4.43
2023-04-02T02:52:02.045Z,4.60
2023-04-02T02:54:54.923Z,4.18
2023-04-02T02:57:32.797Z,3.88
2023-04-02T03:00:02.522Z,3.50
2023-04-02T03:02:38.815Z,4.47
2023-04-02T03:05:10.399Z,6.20
2023-04-02T03:07:38.608Z,8.35
2023-04-02T03:10:16.246Z,7.57
2023-04-02T03:13:14.926Z,7.40
2023-04-02T03:16:02.785Z,6.47
2023-04-02T03:18:41.307Z,6.13
2023-04-02T03:21:24.902Z,6.72
2023-04-02T03:24:01.465Z,7.28
2023-04-02T03:26:41.030Z,9.35
2023-04-02T03:29:18.222Z,9.10
2023-04-02T03:31:51.157Z,8.20
2023-04-02T03:34:41.515Z,8.95
2023-04-02T03:37:47.127Z,7.07
2023-04-02T03:40:29.522Z,5.38
2023-04-02T03:48:03.609Z,4.85
2023-04-02T03:50:48.608Z,4.40
2023-04-02T03:53:25.394Z,5.30
2023-04-02T03:55:55.084Z,6.72
2023-04-02T03:58:55.371Z,6.90
2023-04-02T04:01:35.772Z,6.65
2023-04-02T04:04:10.358Z,6.32
2023-04-02T04:06:43.063Z,5.70
2023-04-02T04:09:23.728Z,6.28
2023-04-02T04:12:17.572Z,5.03
2023-04-02T04:14:52.292Z,3.05
2023-04-02T04:17:34.903Z,1.52
2023-04-02T04:20:11.093Z,1.75
2023-04-02T04:22:39.279Z,2.03
2023-04-02T04:25:24.583Z,2.05
2023-04-02T04:28:38.893Z,2.60
2023-04-02T04:31:25.989Z,2.65
2023-04-02T04:34:05.363Z,2.80
2023-04-02T04:36:57.000Z,2.30
2023-04-02T04:39:45.124Z,1.80
2023-04-02T04:42:20.717Z,2.80
2023-04-02T04:45:00.880Z,2.70
2023-04-02T04:47:36.808Z,6.53
2023-04-02T04:50:13.048Z,3.50
2023-04-02T04:52:45.106Z,3.10
2023-04-02T04:55:39.204Z,2.50
2023-04-02T04:58:32.667Z,2.10
2023-04-02T05:01:32.792Z,2.30
2023-04-02T05:04:26.489Z,2.10
2023-04-02T05:07:07.579Z,2.17
2023-04-02T05:09:35.736Z,2.08
2023-04-02T05:12:18.882Z,2.17
2023-04-02T05:15:05.433Z,2.05
2023-04-02T05:17:38.783Z,2.20
2023-04-02T05:20:16.720Z,2.03
2023-04-02T05:22:55.006Z,2.22
2023-04-02T05:25:30.296Z,2.47
2023-04-02T05:28:01.247Z,2.47
2023-04-02T05:30:29.197Z,2.20
2023-04-02T05:33:08.165Z,4.13
2023-04-02T05:35:42.362Z,2.45
2023-04-02T05:38:22.955Z,1.65
2023-04-02T05:41:01.172Z,1.70
2023-04-02T05:43:33.418Z,2.10
2023-04-02T05:46:08.144Z,1.30
2023-04-02T05:48:40.349Z,1.30
2023-04-02T05:51:15.233Z,1.02
2023-04-02T05:53:57.605Z,0.85
2023-04-02T05:56:44.233Z,1.13
2023-04-02T05:59:20.243Z,1.20
2023-04-02T06:02:31.377Z,0.70
2023-04-02T06:05:24.655Z,1.00
2023-04-02T06:08:16.903Z,0.95
2023-04-02T06:10:58.093Z,0.70
2023-04-02T06:13:28.507Z,0.60
2023-04-02T06:15:57.577Z,0.98
2023-04-02T06:18:37.374Z,0.95
2023-04-02T06:21:06.179Z,0.90
2023-04-02T06:23:55.146Z,1.23
2023-04-02T06:26:33.465Z,0.90
2023-04-02T06:31:44.567Z,0.95
2023-04-02T06:34:18.211Z,0.80
2023-04-02T06:37:23.736Z,1.10
2023-04-02T06:39:59.126Z,0.90
2023-04-02T06:42:31.527Z,0.93
2023-04-02T06:45:28.530Z,0.60
2023-04-02T06:52:48.767Z,1.02
2023-04-02T06:55:45.711Z,1.80
2023-04-02T06:58:17.596Z,1.40
2023-04-02T07:00:51.286Z,1.20
2023-04-02T07:03:32.654Z,1.30
2023-04-02T07:06:13.242Z,0.93
2023-04-02T07:08:41.664Z,1.05
2023-04-02T07:11:20.639Z,1.48
2023-04-02T07:13:51.239Z,1.27
2023-04-02T07:16:23.755Z,0.90
2023-04-02T07:18:52.830Z,1.27
2023-04-02T07:21:21.161Z,0.93
2023-04-02T07:23:56.448Z,1.15
2023-04-02T07:26:27.810Z,0.90
2023-04-02T07:28:56.945Z,1.33
2023-04-02T07:31:27.878Z,1.10
2023-04-02T07:34:00.470Z,1.27
2023-04-02T07:36:31.053Z,1.00
2023-04-02T07:38:59.403Z,1.75
2023-04-02T07:41:28.640Z,1.20
2023-04-02T07:44:04.646Z,0.82
2023-04-02T07:46:32.583Z,1.50
2023-04-02T07:49:08.066Z,0.95
2023-04-02T07:51:36.255Z,1.10
2023-04-02T07:54:13.264Z,0.95
2023-04-02T07:56:41.695Z,0.77
2023-04-02T07:59:16.064Z,0.82
2023-04-02T08:01:44.312Z,1.50
2023-04-02T08:04:22.434Z,1.05
2023-04-02T08:06:51.159Z,0.93
2023-04-02T08:09:19.485Z,2.17
2023-04-02T08:11:54.053Z,1.60
2023-04-02T08:14:22.141Z,1.83
2023-04-02T08:18:52.382Z,3.40
2023-04-02T08:21:27.374Z,1.95
2023-04-02T08:23:55.498Z,1.75
2023-04-02T08:26:30.280Z,2.28
2023-04-02T08:28:58.800Z,1.77
2023-04-02T08:31:27.282Z,2.00
2023-04-02T08:33:57.222Z,2.00
2023-04-02T08:36:36.435Z,1.35
2023-04-02T08:39:06.923Z,1.65
2023-04-02T08:42:39.368Z,1.30
2023-04-02T08:45:40.754Z,1.58
2023-04-02T08:52:55.924Z,1.25
2023-04-02T08:55:48.255Z,1.33
2023-04-02T08:58:43.737Z,1.10
2023-04-02T09:01:28.791Z,1.20
2023-04-02T09:03:59.495Z,1.23
2023-04-02T09:06:30.323Z,1.00
2023-04-02T09:09:00.402Z,1.00
2023-04-02T09:11:38.912Z,1.58
2023-04-02T09:14:19.156Z,2.35
2023-04-02T09:16:53.263Z,2.20
2023-04-02T09:19:37.582Z,2.38
2023-04-02T09:22:20.069Z,1.60
2023-04-02T09:24:57.527Z,2.72
2023-04-02T09:27:28.152Z,1.33
2023-04-02T09:30:04.387Z,1.63
2023-04-02T09:32:50.338Z,1.40
2023-04-02T09:35:26.826Z,2.10
2023-04-02T09:38:10.864Z,0.85
2023-04-02T09:40:54.723Z,0.80
2023-04-02T09:43:31.955Z,0.80
2023-04-02T09:46:22.153Z,1.25
2023-04-02T09:48:56.420Z,1.33
2023-04-02T09:51:26.692Z,0.95
2023-04-02T09:54:03.939Z,1.33
2023-04-02T09:59:22.053Z,1.63
2023-04-02T10:01:56.260Z,1.65
2023-04-02T10:04:44.944Z,1.90
2023-04-02T10:07:35.028Z,1.08
2023-04-02T10:10:23.976Z,1.00
2023-04-02T10:13:00.406Z,1.20
2023-04-02T10:15:38.648Z,1.15
2023-04-02T10:18:45.300Z,0.90
2023-04-02T10:21:19.284Z,0.80
2023-04-02T10:23:47.529Z,0.90
2023-04-02T10:26:33.771Z,1.05
2023-04-02T10:29:28.348Z,1.25
2023-04-02T10:32:18.277Z,0.98
2023-04-02T10:35:03.776Z,0.90
2023-04-02T10:37:38.000Z,1.40
2023-04-02T10:40:27.228Z,0.82
2023-04-02T10:43:27.409Z,0.90
2023-04-02T10:46:26.409Z,1.00
2023-04-02T10:49:06.411Z,1.27
2023-04-02T10:51:44.310Z,0.80
2023-04-02T10:54:28.230Z,1.17
2023-04-02T10:57:02.102Z,1.20
2023-04-02T10:59:37.080Z,1.23
2023-04-02T11:02:24.747Z,1.10
2023-04-02T11:08:04.173Z,1.27
2023-04-02T11:10:37.252Z,1.20
2023-04-02T11:13:27.618Z,1.05
2023-04-02T11:15:55.996Z,0.70
2023-04-02T11:18:29.541Z,0.70
2023-04-02T11:21:55.117Z,1.20
2023-04-02T11:24:44.462Z,1.17
2023-04-02T11:27:38.322Z,1.37
2023-04-02T11:30:14.475Z,1.50
2023-04-02T11:32:50.039Z,1.10
2023-04-02T11:35:26.717Z,1.30
2023-04-02T11:37:57.612Z,1.30
2023-04-02T11:40:47.237Z,1.30
2023-04-02T11:43:50.919Z,0.90
2023-04-02T11:46:31.594Z,2.13
2023-04-02T11:49:39.404Z,1.88
2023-04-02T11:52:47.380Z,1.60
2023-04-02T12:00:16.890Z,2.05
2023-04-02T12:03:13.777Z,1.50
2023-04-02T12:06:13.791Z,1.55
2023-04-02T12:09:19.102Z,2.08
2023-04-02T12:12:32.835Z,2.00
2023-04-02T12:15:25.660Z,1.67
2023-04-02T12:18:03.155Z,1.95
2023-04-02T12:20:35.155Z,2.00
2023-04-02T12:23:04.903Z,2.20
2023-04-02T12:25:46.803Z,1.80
2023-04-02T12:28:24.579Z,1.77
2023-04-02T12:31:08.874Z,1.70
2023-04-02T12:33:43.212Z,1.58
2023-04-02T12:36:36.548Z,1.83
2023-04-02T12:39:04.445Z,1.58
2023-04-02T12:41:39.269Z,2.00
2023-04-02T12:44:18.644Z,2.20
2023-04-02T12:46:49.971Z,1.70
2023-04-02T12:49:39.908Z,1.65
2023-04-02T12:52:14.374Z,1.20
2023-04-02T12:54:52.225Z,2.05
2023-04-02T12:57:29.294Z,1.42
2023-04-02T13:00:01.604Z,1.23
2023-04-02T13:03:22.561Z,2.00
2023-04-02T13:05:57.784Z,1.70
2023-04-02T13:08:29.383Z,1.70
2023-04-02T13:11:01.549Z,1.88
2023-04-02T13:13:38.100Z,2.10
2023-04-02T13:16:28.136Z,1.27
2023-04-02T13:19:18.402Z,1.70
2023-04-02T13:22:32.241Z,1.40
2023-04-02T13:25:05.607Z,2.10
2023-04-02T13:27:34.401Z,3.90
2023-04-02T13:30:22.640Z,3.15
2023-04-02T13:32:56.923Z,1.73
2023-04-02T13:37:20.153Z,23.13
2023-04-02T13:39:48.601Z,3.80
2023-04-02T13:42:23.115Z,1.88
2023-04-02T13:44:52.458Z,3.85
2023-04-02T13:47:27.303Z,3.03
2023-04-02T13:52:37.627Z,1.75
2023-04-02T14:15:35.871Z,1.70
2023-04-02T14:18:43.504Z,2.30
2023-04-02T14:21:43.929Z,2.07
2023-04-02T14:24:30.878Z,1.88
2023-04-02T14:27:04.334Z,1.70
2023-04-02T14:30:04.782Z,2.47
2023-04-02T14:32:49.682Z,2.10
2023-04-02T14:35:38.732Z,2.40
2023-04-02T14:38:24.440Z,1.58
2023-04-02T14:41:34.045Z,2.90
2023-04-02T14:44:07.796Z,2.28
2023-04-02T14:46:38.675Z,2.20
2023-04-02T14:49:09.650Z,1.88
2023-04-02T14:51:52.166Z,2.17
2023-04-02T14:54:50.507Z,2.53
2023-04-02T14:57:21.897Z,1.80
2023-04-02T14:59:52.806Z,2.53
2023-04-02T15:02:59.599Z,1.80
2023-04-02T15:05:45.713Z,1.80
2023-04-02T15:08:19.713Z,2.20
2023-04-02T15:11:09.270Z,2.10
2023-04-02T15:13:50.666Z,2.00
2023-04-02T15:16:23.718Z,2.30
2023-04-02T15:18:53.696Z,1.90
2023-04-02T15:21:57.151Z,3.22
2023-04-02T15:24:47.919Z,2.30
2023-04-02T15:27:25.566Z,1.80
2023-04-02T15:30:23.823Z,2.70
2023-04-02T15:33:27.985Z,1.98
2023-04-02T15:40:16.819Z,1.15
2023-04-02T15:43:01.657Z,1.30
2023-04-02T15:45:32.837Z,1.90
2023-04-02T15:48:15.201Z,2.53
2023-04-02T15:50:49.914Z,2.10
2023-04-02T15:53:31.122Z,2.63
2023-04-02T15:56:14.342Z,2.78
2023-04-02T15:58:55.169Z,2.17
2023-04-02T16:01:52.310Z,2.13
2023-04-02T16:05:17.498Z,2.38
2023-04-02T16:16:37.623Z,3.08
2023-04-02T16:19:16.092Z,3.83
2023-04-02T16:22:17.530Z,3.53
2023-04-02T16:47:41.922Z,3.17
2023-04-02T16:53:08.736Z,3.03
2023-04-02T16:56:02.375Z,2.80
2023-04-02T16:59:29.295Z,2.65
2023-04-02T17:07:23.373Z,3.08
2023-04-02T17:14:06.206Z,3.50
2023-04-02T17:16:44.459Z,3.92
2023-04-02T17:19:45.317Z,3.67
2023-04-02T17:22:22.044Z,4.07
2023-04-02T17:24:54.310Z,3.30
2023-04-02T17:27:38.164Z,3.72
2023-04-02T17:30:41.736Z,2.83
2023-04-02T17:33:18.913Z,3.05
2023-04-02T17:35:55.551Z,4.50
2023-04-02T17:39:17.454Z,5.25
2023-04-02T17:42:01.098Z,3.47
2023-04-02T17:44:48.084Z,3.80
2023-04-02T17:47:51.877Z,3.67
2023-04-02T17:50:41.187Z,3.85
2023-04-02T17:53:30.426Z,3.20
2023-04-02T17:56:19.596Z,2.97
2023-04-02T17:59:01.244Z,2.90
2023-04-02T18:01:51.876Z,2.75
2023-04-02T18:04:30.637Z,3.97
2023-04-02T18:07:21.393Z,4.32
2023-04-02T18:10:17.672Z,4.50
2023-04-02T18:13:18.701Z,3.00
2023-04-02T18:16:24.533Z,2.50
2023-04-02T18:59:19.238Z,2.63
2023-04-02T19:01:54.826Z,2.22
2023-04-02T19:04:29.815Z,2.13
2023-04-02T19:07:19.458Z,2.33
2023-04-02T19:09:51.351Z,1.98
2023-04-02T19:12:22.541Z,2.22
2023-04-02T19:14:52.445Z,1.90
2023-04-02T19:17:32.095Z,2.30
2023-04-02T19:20:40.596Z,1.88
2023-04-02T19:23:55.553Z,1.98
2023-04-02T19:26:36.999Z,2.30
2023-04-02T19:29:44.885Z,2.97
2023-04-02T19:32:22.317Z,4.35
2023-04-02T19:35:10.383Z,4.75
2023-04-02T19:37:55.287Z,2.10
2023-04-02T19:43:11.793Z,1.42
2023-04-02T19:45:41.923Z,1.70
2023-04-02T19:48:12.293Z,2.00
2023-04-02T19:50:40.790Z,2.30
2023-04-02T19:53:09.031Z,2.50
2023-04-02T19:55:37.487Z,2.30
2023-04-02T19:58:18.665Z,1.60
2023-04-02T20:02:32.105Z,2.38
2023-04-02T20:05:00.139Z,2.10
2023-04-02T20:07:28.136Z,2.00
2023-04-02T20:09:56.327Z,2.22
2023-04-02T20:12:24.172Z,2.20
2023-04-02T20:14:52.321Z,1.85
2023-04-02T20:20:56.356Z,2.28
2023-04-02T20:23:25.078Z,1.70
2023-04-02T20:25:57.110Z,2.13
2023-04-02T20:28:26.684Z,1.83
2023-04-02T20:30:55.087Z,1.80
2023-04-02T20:33:24.995Z,1.63
2023-04-02T20:35:53.533Z,1.55
2023-04-02T20:38:22.007Z,1.92
2023-04-02T20:40:55.298Z,1.92
2023-04-02T20:43:23.625Z,1.85
2023-04-02T20:45:57.165Z,1.83
2023-04-02T20:48:27.793Z,1.90
2023-04-02T20:50:56.013Z,1.33
2023-04-02T20:53:28.825Z,1.80
2023-04-02T20:56:10.515Z,2.13
2023-04-02T20:58:39.767Z,1.52
2023-04-02T21:01:15.878Z,1.42
2023-04-02T21:03:44.661Z,1.95
2023-04-02T21:06:18.538Z,2.03
2023-04-02T21:08:46.919Z,1.60
2023-04-02T21:11:22.298Z,1.75
2023-04-02T21:13:50.882Z,2.47
2023-04-02T21:16:29.535Z,1.70
2023-04-02T21:37:07.049Z,1.80
2023-04-02T21:39:35.138Z,2.10
2023-04-02T21:42:11.339Z,2.10
2023-04-02T21:44:39.812Z,1.63
2023-04-02T21:47:14.970Z,1.80
2023-04-02T21:49:43.237Z,1.90
2023-04-02T21:52:18.010Z,2.00
2023-04-02T21:54:46.773Z,2.00
2023-04-02T21:57:19.057Z,1.80
2023-04-02T21:59:47.284Z,1.55
2023-04-02T22:02:21.595Z,1.90
2023-04-02T22:04:49.748Z,1.60
2023-04-02T22:07:24.787Z,1.35
2023-04-02T22:09:52.949Z,1.60
2023-04-02T22:12:27.687Z,2.03
2023-04-02T22:14:55.649Z,1.10
2023-04-02T22:17:29.886Z,1.63
2023-04-02T22:19:58.147Z,2.03
2023-04-02T22:22:33.166Z,1.55
2023-04-02T22:25:01.973Z,1.20
2023-04-02T22:27:38.087Z,1.55
2023-04-02T22:30:08.119Z,1.42
2023-04-02T22:32:44.078Z,2.13
2023-04-02T22:35:14.411Z,1.70
2023-04-02T22:37:42.472Z,1.30
2023-04-02T22:40:16.723Z,1.80
2023-04-02T22:42:47.403Z,2.05
2023-04-02T22:45:18.083Z,1.80
2023-04-02T22:47:46.660Z,2.20
2023-04-02T22:50:18.613Z,1.67
2023-04-02T22:52:46.687Z,1.10
2023-04-02T22:55:18.342Z,1.67
2023-04-02T22:57:46.430Z,1.30
2023-04-02T23:00:16.441Z,1.30
2023-04-02T23:02:50.663Z,1.42
2023-04-02T23:05:18.856Z,1.25
2023-04-02T23:07:53.557Z,1.60
2023-04-02T23:10:21.890Z,1.90
2023-04-02T23:12:56.594Z,1.95
2023-04-02T23:15:24.778Z,2.20
2023-04-02T23:17:59.663Z,1.50
2023-04-02T23:20:27.913Z,1.85
2023-04-02T23:23:02.661Z,1.50
2023-04-02T23:25:31.081Z,2.10
2023-04-02T23:28:05.590Z,1.95
2023-04-02T23:30:33.517Z,1.70
2023-04-02T23:33:08.107Z,2.30
2023-04-02T23:35:36.589Z,2.33
2023-04-02T23:38:11.052Z,1.92
2023-04-02T23:40:39.034Z,2.50
2023-04-02T23:43:14.730Z,2.67
2023-04-02T23:45:46.577Z,2.45
2023-04-02T23:48:14.743Z,2.58
2023-04-02T23:50:43.020Z,2.95
2023-04-02T23:53:18.890Z,2.60
2023-04-02T23:55:46.800Z,2.45
2023-04-02T23:58:21.594Z,2.40
